createdAt,value
2022-10-17T00:00:13.971Z,7.00
2022-10-17T00:02:41.069Z,7.33
2022-10-17T00:05:08.418Z,6.60
2022-10-17T00:07:35.514Z,7.00
2022-10-17T00:10:02.598Z,6.63
2022-10-17T00:12:29.696Z,6.73
2022-10-17T00:14:56.777Z,6.43
2022-10-17T00:17:25.358Z,6.50
2022-10-17T00:19:52.650Z,6.43
2022-10-17T00:22:19.748Z,6.80
2022-10-17T00:24:46.841Z,6.23
2022-10-17T00:27:13.925Z,6.60
2022-10-17T00:29:41.187Z,6.43
2022-10-17T00:32:08.383Z,6.33
2022-10-17T00:34:36.957Z,5.73
2022-10-17T00:37:04.062Z,6.27
2022-10-17T00:39:31.315Z,5.93
2022-10-17T00:41:58.890Z,5.57
2022-10-17T00:44:44.485Z,5.53
2022-10-17T00:47:12.580Z,6.67
2022-10-17T00:49:41.424Z,6.07
2022-10-17T00:52:10.349Z,5.60
2022-10-17T00:54:39.018Z,5.80
2022-10-17T00:57:06.380Z,5.63
2022-10-17T00:59:34.312Z,5.43
2022-10-17T01:02:02.663Z,6.23
2022-10-17T01:04:30.605Z,6.67
2022-10-17T01:06:59.059Z,5.43
2022-10-17T01:09:27.181Z,5.73
2022-10-17T01:11:57.531Z,5.47
2022-10-17T01:14:29.503Z,5.50
2022-10-17T01:17:02.280Z,6.30
2022-10-17T01:19:36.373Z,6.10
2022-10-17T01:22:08.665Z,6.00
2022-10-17T01:24:47.397Z,5.90
2022-10-17T01:27:29.415Z,6.03
2022-10-17T01:30:29.922Z,5.93
2022-10-17T01:32:59.394Z,6.20
2022-10-17T01:35:30.305Z,6.30
2022-10-17T01:38:04.092Z,5.93
2022-10-17T01:40:35.279Z,5.80
2022-10-17T01:43:04.904Z,6.37
2022-10-17T01:45:34.154Z,6.50
2022-10-17T01:48:06.314Z,6.03
2022-10-17T01:50:35.056Z,7.53
2022-10-17T01:53:03.304Z,5.80
2022-10-17T01:55:32.891Z,6.00
2022-10-17T01:58:02.081Z,6.40
2022-10-17T02:00:30.365Z,6.17
2022-10-17T02:02:58.855Z,5.60
2022-10-17T02:05:30.179Z,6.63
2022-10-17T02:07:57.304Z,5.60
2022-10-17T02:10:31.752Z,6.10
2022-10-17T02:13:02.682Z,5.47
2022-10-17T02:15:46.746Z,4.70
2022-10-17T02:18:25.198Z,5.40
2022-10-17T02:20:55.662Z,5.27
2022-10-17T02:23:26.689Z,6.00
2022-10-17T02:25:57.630Z,4.90
2022-10-17T02:28:29.889Z,4.90
2022-10-17T02:30:59.579Z,4.97
2022-10-17T02:33:28.676Z,4.87
2022-10-17T02:36:00.976Z,6.30
2022-10-17T02:38:29.750Z,4.97
2022-10-17T02:40:57.370Z,5.20
2022-10-17T02:43:24.544Z,5.80
2022-10-17T02:45:52.916Z,5.10
2022-10-17T02:48:24.572Z,5.23
2022-10-17T02:50:54.374Z,5.30
2022-10-17T02:53:25.993Z,5.63
2022-10-17T02:55:55.846Z,5.10
2022-10-17T02:58:27.500Z,4.60
2022-10-17T03:00:54.971Z,5.10
2022-10-17T03:03:23.377Z,4.77
2022-10-17T03:05:51.432Z,5.13
2022-10-17T03:08:18.601Z,5.50
2022-10-17T03:10:47.050Z,5.20
2022-10-17T03:13:14.338Z,5.07
2022-10-17T03:15:41.558Z,4.90
2022-10-17T03:18:09.465Z,4.90
2022-10-17T03:20:37.034Z,5.37
2022-10-17T03:23:04.329Z,5.00
2022-10-17T03:25:31.438Z,5.73
2022-10-17T03:28:00.753Z,5.10
2022-10-17T03:30:28.138Z,5.00
2022-10-17T03:32:55.376Z,4.67
2022-10-17T03:35:22.469Z,4.77
2022-10-17T03:37:50.928Z,5.70
2022-10-17T03:40:22.489Z,4.60
2022-10-17T03:42:49.598Z,4.87
2022-10-17T03:45:18.158Z,5.07
2022-10-17T03:47:46.441Z,5.80
2022-10-17T03:50:13.616Z,5.20
2022-10-17T03:52:42.188Z,5.50
2022-10-17T03:55:09.465Z,5.17
2022-10-17T03:57:36.666Z,5.13
2022-10-17T04:00:05.815Z,5.17
2022-10-17T04:02:42.872Z,4.57
2022-10-17T04:05:16.448Z,5.23
2022-10-17T04:07:43.551Z,5.00
2022-10-17T04:10:11.493Z,5.03
2022-10-17T04:12:38.662Z,4.77
2022-10-17T04:15:06.678Z,4.97
2022-10-17T04:17:37.313Z,6.10
2022-10-17T04:20:08.052Z,4.80
2022-10-17T04:22:35.183Z,5.00
2022-10-17T04:25:02.543Z,4.97
2022-10-17T04:27:42.760Z,5.30
2022-10-17T04:30:10.324Z,5.47
2022-10-17T04:32:37.736Z,5.07
2022-10-17T04:35:35.538Z,4.40
2022-10-17T04:38:04.905Z,5.90
2022-10-17T04:40:31.996Z,5.57
2022-10-17T04:42:59.671Z,4.70
2022-10-17T04:45:34.018Z,5.23
2022-10-17T04:48:03.832Z,4.33
2022-10-17T04:50:30.974Z,5.57
2022-10-17T04:53:26.133Z,4.50
2022-10-17T04:55:54.398Z,5.47
2022-10-17T04:58:22.037Z,5.43
2022-10-17T05:00:50.079Z,5.13
2022-10-17T05:03:23.196Z,4.13
2022-10-17T05:05:50.376Z,4.73
2022-10-17T05:08:17.671Z,4.30
2022-10-17T05:10:46.303Z,4.60
2022-10-17T05:13:14.076Z,5.17
2022-10-17T05:15:41.507Z,5.20
2022-10-17T05:18:08.678Z,4.53
2022-10-17T05:20:36.715Z,4.47
2022-10-17T05:23:03.906Z,4.50
2022-10-17T05:25:35.798Z,4.63
2022-10-17T05:28:04.247Z,5.00
2022-10-17T05:30:35.207Z,4.77
2022-10-17T05:33:05.896Z,5.10
2022-10-17T05:35:33.182Z,4.27
2022-10-17T05:38:00.367Z,4.93
2022-10-17T05:40:28.125Z,5.43
2022-10-17T05:42:55.345Z,5.40
2022-10-17T05:45:25.124Z,5.10
2022-10-17T05:47:52.281Z,5.03
2022-10-17T05:50:19.898Z,4.77
2022-10-17T05:53:10.990Z,4.70
2022-10-17T05:55:44.107Z,4.83
2022-10-17T05:58:17.725Z,4.20
2022-10-17T06:00:59.608Z,5.10
2022-10-17T06:03:27.465Z,4.40
2022-10-17T06:05:54.799Z,4.90
2022-10-17T06:08:22.257Z,5.00
2022-10-17T06:10:50.938Z,4.90
2022-10-17T06:13:18.550Z,5.00
2022-10-17T06:15:49.638Z,5.60
2022-10-17T06:18:18.181Z,5.03
2022-10-17T06:20:46.180Z,4.67
2022-10-17T06:23:15.510Z,5.23
2022-10-17T06:26:03.693Z,4.37
2022-10-17T06:28:31.978Z,4.60
2022-10-17T06:30:59.166Z,5.27
2022-10-17T06:33:28.350Z,4.60
2022-10-17T06:35:56.237Z,3.77
2022-10-17T06:38:24.843Z,5.33
2022-10-17T06:40:54.652Z,4.97
2022-10-17T06:43:27.008Z,4.73
2022-10-17T06:46:15.821Z,5.87
2022-10-17T06:48:55.551Z,5.10
2022-10-17T06:51:30.438Z,4.90
2022-10-17T06:53:59.030Z,5.07
2022-10-17T06:56:44.576Z,5.20
2022-10-17T06:59:49.972Z,4.83
2022-10-17T07:02:21.599Z,5.13
2022-10-17T07:04:50.889Z,4.67
2022-10-17T07:07:18.008Z,4.97
2022-10-17T07:09:45.272Z,4.27
2022-10-17T07:12:12.442Z,4.37
2022-10-17T07:14:43.564Z,3.97
2022-10-17T07:17:10.725Z,4.10
2022-10-17T07:19:38.301Z,4.30
2022-10-17T07:22:09.836Z,4.30
2022-10-17T07:24:39.099Z,4.47
2022-10-17T07:27:14.888Z,3.77
2022-10-17T07:29:41.983Z,4.10
2022-10-17T07:32:18.717Z,4.23
2022-10-17T07:34:45.862Z,3.80
2022-10-17T07:37:14.343Z,4.53
2022-10-17T07:39:47.574Z,4.40
2022-10-17T07:42:14.688Z,4.53
2022-10-17T07:44:42.132Z,4.40
2022-10-17T07:47:10.161Z,4.23
2022-10-17T07:49:37.907Z,4.40
2022-10-17T07:52:05.025Z,4.37
2022-10-17T07:54:33.481Z,4.70
2022-10-17T07:57:00.708Z,3.40
2022-10-17T07:59:27.841Z,4.40
2022-10-17T08:01:56.021Z,4.10
2022-10-17T08:04:23.085Z,4.10
2022-10-17T08:06:53.382Z,4.10
2022-10-17T08:09:23.609Z,3.70
2022-10-17T08:11:52.046Z,3.50
2022-10-17T08:14:19.149Z,4.20
2022-10-17T08:16:46.247Z,4.00
2022-10-17T08:19:13.357Z,4.00
2022-10-17T08:21:40.428Z,4.40
2022-10-17T08:24:07.531Z,3.40
2022-10-17T08:26:37.948Z,3.87
2022-10-17T08:29:12.074Z,3.60
2022-10-17T08:31:39.178Z,3.33
2022-10-17T08:34:06.314Z,3.83
2022-10-17T08:36:33.408Z,4.50
2022-10-17T08:39:00.529Z,3.73
2022-10-17T08:41:40.850Z,3.20
2022-10-17T08:44:14.618Z,3.60
2022-10-17T08:46:42.939Z,4.20
2022-10-17T08:49:13.547Z,3.73
2022-10-17T08:51:44.788Z,3.93
2022-10-17T08:54:13.606Z,4.23
2022-10-17T08:56:49.856Z,3.70
2022-10-17T08:59:20.656Z,3.83
2022-10-17T09:01:50.271Z,4.03
2022-10-17T09:04:35.262Z,3.80
2022-10-17T09:07:04.635Z,3.60
2022-10-17T09:09:35.529Z,3.97
2022-10-17T09:12:12.488Z,4.10
2022-10-17T09:14:54.495Z,4.13
2022-10-17T09:17:26.652Z,4.10
2022-10-17T09:19:59.548Z,3.20
2022-10-17T09:22:28.844Z,3.80
2022-10-17T09:24:57.829Z,3.87
2022-10-17T09:27:26.342Z,4.07
2022-10-17T09:29:56.032Z,4.37
2022-10-17T09:32:24.670Z,3.60
2022-10-17T09:34:52.469Z,3.90
2022-10-17T09:37:20.105Z,3.87
2022-10-17T09:39:47.231Z,3.07
2022-10-17T09:42:15.470Z,3.87
2022-10-17T09:44:46.114Z,3.60
2022-10-17T09:47:19.469Z,3.90
2022-10-17T09:49:47.712Z,3.40
2022-10-17T09:52:16.862Z,3.50
2022-10-17T09:54:45.314Z,4.10
2022-10-17T09:57:13.014Z,3.87
2022-10-17T09:59:41.197Z,3.83
2022-10-17T10:02:09.337Z,3.70
2022-10-17T10:04:59.702Z,3.70
2022-10-17T10:07:29.165Z,4.10
2022-10-17T10:09:56.952Z,3.87
2022-10-17T10:12:25.050Z,4.00
2022-10-17T10:14:54.748Z,4.47
2022-10-17T10:17:34.083Z,4.30
2022-10-17T10:20:02.973Z,3.30
2022-10-17T10:22:30.395Z,3.67
2022-10-17T10:25:08.028Z,4.40
2022-10-17T10:27:35.249Z,3.50
2022-10-17T10:30:02.796Z,4.40
2022-10-17T10:32:31.533Z,3.43
2022-10-17T10:34:59.817Z,4.43
2022-10-17T10:37:30.393Z,4.30
2022-10-17T10:39:58.904Z,3.93
2022-10-17T10:42:27.486Z,3.63
2022-10-17T10:44:55.568Z,4.13
2022-10-17T10:47:24.528Z,4.07
2022-10-17T10:49:52.922Z,4.43
2022-10-17T10:52:29.164Z,4.63
2022-10-17T10:55:00.694Z,3.90
2022-10-17T10:57:31.607Z,3.83
2022-10-17T11:00:01.436Z,3.70
2022-10-17T11:02:30.837Z,4.20
2022-10-17T11:05:00.549Z,4.33
2022-10-17T11:07:31.135Z,4.13
2022-10-17T11:10:03.439Z,4.13
2022-10-17T11:12:34.068Z,4.10
2022-10-17T11:15:04.259Z,4.10
2022-10-17T11:17:34.094Z,4.57
2022-10-17T11:20:04.360Z,3.57
2022-10-17T11:22:33.348Z,3.80
2022-10-17T11:25:06.028Z,4.33
2022-10-17T11:27:34.579Z,3.90
2022-10-17T11:30:01.966Z,4.33
2022-10-17T11:32:32.093Z,4.50
2022-10-17T11:35:01.865Z,4.37
2022-10-17T11:37:32.470Z,4.30
2022-10-17T11:40:01.577Z,4.47
2022-10-17T11:42:32.306Z,5.03
2022-10-17T11:45:01.270Z,4.50
2022-10-17T11:47:32.279Z,4.40
2022-10-17T11:51:59.906Z,4.70
2022-10-17T11:52:56.347Z,4.10
2022-10-17T11:55:24.744Z,4.70
2022-10-17T11:58:01.451Z,4.50
2022-10-17T12:00:37.990Z,4.53
2022-10-17T12:03:24.469Z,4.23
2022-10-17T12:05:55.708Z,3.87
2022-10-17T12:08:29.167Z,4.70
2022-10-17T12:11:01.101Z,4.40
2022-10-17T12:13:49.617Z,4.63
2022-10-17T12:16:39.776Z,4.63
2022-10-17T12:19:21.645Z,5.07
2022-10-17T12:21:55.622Z,4.73
2022-10-17T12:24:28.643Z,4.13
2022-10-17T12:26:57.098Z,4.37
2022-10-17T12:29:28.672Z,4.40
2022-10-17T12:32:10.095Z,4.77
2022-10-17T12:34:37.864Z,5.00
2022-10-17T12:37:04.962Z,4.33
2022-10-17T12:39:49.978Z,4.80
2022-10-17T12:42:40.797Z,4.57
2022-10-17T12:45:22.767Z,4.80
2022-10-17T12:47:51.525Z,4.73
2022-10-17T12:50:39.635Z,4.57
2022-10-17T12:53:06.927Z,4.57
2022-10-17T12:55:34.298Z,5.03
2022-10-17T12:58:02.979Z,5.40
2022-10-17T13:00:33.943Z,5.17
2022-10-17T13:03:07.527Z,5.03
2022-10-17T13:05:35.405Z,5.10
2022-10-17T13:08:04.034Z,4.90
2022-10-17T13:10:32.717Z,4.70
2022-10-17T13:13:04.814Z,4.50
2022-10-17T13:15:32.314Z,4.70
2022-10-17T13:18:00.326Z,5.53
2022-10-17T13:20:31.717Z,4.50
2022-10-17T13:22:59.699Z,4.60
2022-10-17T13:25:27.462Z,4.20
2022-10-17T13:28:04.468Z,4.50
2022-10-17T13:30:32.605Z,4.57
2022-10-17T13:32:59.905Z,4.70
2022-10-17T13:35:55.439Z,4.07
2022-10-17T13:38:26.702Z,4.00
2022-10-17T13:41:01.732Z,4.20
2022-10-17T13:43:38.445Z,4.40
2022-10-17T13:46:25.363Z,5.27
2022-10-17T13:48:53.222Z,4.60
2022-10-17T13:51:21.984Z,4.90
2022-10-17T13:53:49.075Z,4.37
2022-10-17T13:56:28.235Z,4.03
2022-10-17T13:58:57.354Z,4.60
2022-10-17T14:01:25.685Z,3.60
2022-10-17T14:04:07.172Z,3.73
2022-10-17T14:06:40.959Z,4.80
2022-10-17T14:09:16.721Z,3.80
2022-10-17T14:11:45.129Z,3.43
2022-10-17T14:14:18.683Z,3.80
2022-10-17T14:16:45.813Z,4.20
2022-10-17T14:19:21.157Z,4.00
2022-10-17T14:21:50.220Z,3.90
2022-10-17T14:24:27.209Z,4.20
2022-10-17T14:26:55.090Z,3.50
2022-10-17T14:29:24.049Z,4.27
2022-10-17T14:31:51.365Z,3.80
2022-10-17T14:34:22.533Z,4.30
2022-10-17T14:36:52.572Z,3.90
2022-10-17T14:39:21.292Z,3.80
2022-10-17T14:41:48.645Z,4.50
2022-10-17T14:44:23.054Z,3.60
2022-10-17T14:46:52.504Z,4.40
2022-10-17T14:49:24.655Z,6.13
2022-10-17T14:52:16.812Z,5.27
2022-10-17T14:54:45.601Z,4.40
2022-10-17T14:57:16.206Z,4.47
2022-10-17T14:59:53.913Z,4.20
2022-10-17T15:02:22.155Z,4.30
2022-10-17T15:04:49.246Z,4.00
2022-10-17T15:07:18.478Z,5.63
2022-10-17T15:09:47.730Z,4.10
2022-10-17T15:12:15.906Z,3.73
2022-10-17T15:14:42.990Z,3.60
2022-10-17T15:17:13.028Z,4.00
2022-10-17T15:19:40.117Z,3.53
2022-10-17T15:22:07.244Z,3.50
2022-10-17T15:24:35.699Z,4.17
2022-10-17T15:27:02.850Z,4.33
2022-10-17T15:29:30.014Z,4.50
2022-10-17T15:31:57.124Z,3.13
2022-10-17T15:34:24.185Z,3.50
2022-10-17T15:36:52.009Z,3.87
2022-10-17T15:39:19.080Z,3.97
2022-10-17T15:41:47.582Z,3.90
2022-10-17T15:44:14.946Z,4.00
2022-10-17T15:46:42.630Z,4.47
2022-10-17T15:49:11.773Z,4.57
2022-10-17T15:51:38.889Z,4.67
2022-10-17T15:54:06.027Z,4.97
2022-10-17T15:56:34.077Z,4.17
2022-10-17T15:59:02.993Z,5.40
2022-10-17T16:01:31.110Z,5.20
2022-10-17T16:03:58.289Z,5.37
2022-10-17T16:06:25.533Z,5.00
2022-10-17T16:08:52.851Z,5.80
2022-10-17T16:11:28.343Z,5.43
2022-10-17T16:13:57.497Z,5.27
2022-10-17T16:16:25.941Z,4.77
2022-10-17T16:18:53.088Z,4.80
2022-10-17T16:21:21.094Z,4.67
2022-10-17T16:23:48.236Z,4.83
2022-10-17T16:26:15.636Z,5.80
2022-10-17T16:28:46.130Z,5.57
2022-10-17T16:31:18.309Z,5.63
2022-10-17T16:33:46.752Z,5.43
2022-10-17T16:36:13.871Z,5.30
2022-10-17T16:38:40.952Z,5.90
2022-10-17T16:41:14.678Z,5.83
2022-10-17T16:43:41.779Z,6.70
2022-10-17T16:46:08.845Z,5.70
2022-10-17T16:48:36.003Z,6.77
2022-10-17T16:51:04.619Z,6.70
2022-10-17T16:53:31.690Z,5.63
2022-10-17T16:56:01.617Z,6.47
2022-10-17T16:58:29.177Z,6.70
2022-10-17T17:00:56.326Z,6.37
2022-10-17T17:03:23.401Z,7.67
2022-10-17T17:05:50.731Z,7.27
2022-10-17T17:08:19.160Z,8.63
2022-10-17T17:10:46.289Z,7.90
2022-10-17T17:13:13.383Z,7.47
2022-10-17T17:15:40.491Z,6.53
2022-10-17T17:18:07.823Z,7.27
2022-10-17T17:20:35.118Z,6.70
2022-10-17T17:23:02.217Z,7.20
2022-10-17T17:25:30.651Z,7.63
2022-10-17T17:27:57.746Z,8.37
2022-10-17T17:30:24.834Z,7.80
2022-10-17T17:32:51.971Z,7.90
2022-10-17T17:35:19.094Z,6.70
2022-10-17T17:37:46.175Z,7.63
2022-10-17T17:40:13.866Z,8.80
2022-10-17T17:42:42.427Z,7.70
2022-10-17T17:45:10.061Z,7.40
2022-10-17T17:47:37.158Z,8.07
2022-10-17T17:50:04.495Z,7.10
2022-10-17T17:52:31.852Z,7.60
2022-10-17T17:54:59.095Z,7.63
2022-10-17T17:57:26.202Z,7.77
2022-10-17T17:59:54.681Z,7.20
2022-10-17T18:02:21.767Z,7.83
2022-10-17T18:04:49.118Z,8.03
2022-10-17T18:07:16.206Z,8.33
2022-10-17T18:09:43.296Z,7.80
2022-10-17T18:12:10.500Z,7.80
2022-10-17T18:14:37.625Z,7.17
2022-10-17T18:17:06.197Z,6.20
2022-10-17T18:19:33.340Z,6.30
2022-10-17T18:22:00.449Z,6.10
2022-10-17T18:24:27.569Z,6.70
2022-10-17T18:26:54.682Z,5.40
2022-10-17T18:29:21.754Z,5.17
2022-10-17T18:31:48.831Z,4.60
2022-10-17T18:34:17.270Z,4.63
2022-10-17T18:36:44.349Z,4.40
2022-10-17T18:39:11.445Z,4.97
2022-10-17T18:41:38.545Z,4.63
2022-10-17T18:44:05.631Z,4.90
2022-10-17T18:46:33.457Z,4.43
2022-10-17T18:49:00.546Z,4.87
2022-10-17T18:51:29.010Z,4.70
2022-10-17T18:53:57.047Z,5.17
2022-10-17T18:56:24.177Z,4.73
2022-10-17T18:58:51.563Z,4.47
2022-10-17T19:01:19.554Z,4.37
2022-10-17T19:03:48.329Z,5.40
2022-10-17T19:06:16.448Z,5.60
2022-10-17T19:08:45.263Z,6.07
2022-10-17T19:11:14.080Z,6.03
2022-10-17T19:13:41.283Z,5.90
2022-10-17T19:16:08.899Z,6.20
2022-10-17T19:18:36.108Z,5.90
2022-10-17T19:21:03.547Z,6.40
2022-10-17T19:23:30.988Z,6.90
2022-10-17T19:26:03.548Z,6.50
2022-10-17T19:28:30.799Z,5.20
2022-10-17T19:30:57.907Z,5.90
2022-10-17T19:33:25.080Z,5.43
2022-10-17T19:35:55.846Z,6.30
2022-10-17T19:38:23.007Z,5.47
2022-10-17T19:40:50.147Z,4.40
2022-10-17T19:43:18.825Z,4.93
2022-10-17T19:45:54.356Z,4.53
2022-10-17T19:48:21.431Z,3.97
2022-10-17T19:50:48.556Z,3.90
2022-10-17T19:53:15.672Z,3.90
2022-10-17T19:55:42.789Z,4.40
2022-10-17T19:58:09.854Z,3.83
2022-10-17T20:00:38.281Z,4.70
2022-10-17T20:03:05.348Z,4.70
2022-10-17T20:05:32.444Z,4.60
2022-10-17T20:07:59.517Z,5.50
2022-10-17T20:10:26.657Z,4.50
2022-10-17T20:12:53.730Z,3.90
2022-10-17T20:15:20.841Z,5.50
2022-10-17T20:17:49.292Z,4.90
2022-10-17T20:20:16.699Z,5.43
2022-10-17T20:22:43.798Z,5.30
2022-10-17T20:25:10.911Z,4.57
2022-10-17T20:27:38.016Z,6.10
2022-10-17T20:30:05.583Z,4.87
2022-10-17T20:32:33.774Z,4.90
2022-10-17T20:35:02.359Z,4.53
2022-10-17T20:37:29.779Z,4.47
2022-10-17T20:40:22.802Z,4.30
2022-10-17T20:42:44.174Z,4.20
2022-10-17T20:45:11.481Z,4.23
2022-10-17T20:47:47.206Z,3.27
2022-10-17T20:50:17.836Z,3.83
2022-10-17T20:52:44.944Z,4.53
2022-10-17T20:55:12.030Z,3.73
2022-10-17T20:57:39.185Z,3.30
2022-10-17T21:00:06.722Z,4.50
2022-10-17T21:02:33.808Z,4.40
2022-10-17T21:05:00.907Z,4.97
2022-10-17T21:07:29.655Z,4.60
2022-10-17T21:10:00.310Z,4.80
2022-10-17T21:12:50.068Z,3.90
2022-10-17T21:15:20.887Z,3.77
2022-10-17T21:17:48.025Z,3.70
2022-10-17T21:20:15.140Z,4.77
2022-10-17T21:22:43.584Z,3.90
2022-10-17T21:25:10.672Z,3.90
2022-10-17T21:27:37.743Z,4.10
2022-10-17T21:30:05.265Z,4.30
2022-10-17T21:32:47.482Z,3.97
2022-10-17T21:35:18.372Z,5.00
2022-10-17T21:37:46.831Z,4.47
2022-10-17T21:40:13.918Z,4.33
2022-10-17T21:42:40.974Z,5.73
2022-10-17T21:45:15.396Z,5.40
2022-10-17T21:48:11.291Z,5.80
2022-10-17T21:50:34.583Z,5.47
2022-10-17T21:53:03.028Z,5.00
2022-10-17T21:55:30.141Z,4.60
2022-10-17T21:57:57.248Z,4.47
2022-10-17T22:00:24.394Z,4.53
2022-10-17T22:02:51.541Z,4.90
2022-10-17T22:05:18.616Z,4.87
2022-10-17T22:07:45.764Z,4.40
2022-10-17T22:10:14.278Z,4.30
2022-10-17T22:12:41.390Z,5.37
2022-10-17T22:15:09.046Z,5.10
2022-10-17T22:17:36.121Z,5.27
2022-10-17T22:20:03.238Z,5.30
2022-10-17T22:22:30.778Z,5.47
2022-10-17T22:24:57.857Z,4.60
2022-10-17T22:27:26.295Z,4.87
2022-10-17T22:29:53.424Z,4.97
2022-10-17T22:32:22.502Z,4.80
2022-10-17T22:34:49.870Z,4.40
2022-10-17T22:37:16.944Z,4.30
2022-10-17T22:39:44.070Z,4.60
2022-10-17T22:42:11.158Z,4.53
2022-10-17T22:44:39.660Z,5.23
2022-10-17T22:47:06.972Z,5.00
2022-10-17T22:49:34.193Z,4.23
2022-10-17T22:52:01.283Z,4.37
2022-10-17T22:54:28.393Z,4.93
2022-10-17T22:56:55.509Z,4.93
2022-10-17T22:59:22.721Z,5.23
2022-10-17T23:01:51.188Z,6.30
2022-10-17T23:04:18.290Z,6.57
2022-10-17T23:06:45.388Z,6.37
2022-10-17T23:09:12.848Z,5.27
2022-10-17T23:11:39.932Z,7.07
2022-10-17T23:14:07.021Z,5.80
2022-10-17T23:16:34.125Z,6.50
2022-10-17T23:19:02.554Z,6.53
2022-10-17T23:21:29.641Z,5.83
2022-10-17T23:23:56.754Z,7.60
2022-10-17T23:26:23.835Z,6.73
2022-10-17T23:28:53.873Z,7.03
2022-10-17T23:31:21.785Z,7.20
2022-10-17T23:33:49.728Z,6.40
2022-10-17T23:36:19.306Z,7.60
2022-10-17T23:38:46.880Z,8.20
2022-10-17T23:41:14.393Z,7.40
2022-10-17T23:43:41.524Z,7.40
2022-10-17T23:46:09.132Z,6.50
2022-10-17T23:48:36.242Z,7.57
2022-10-17T23:51:03.974Z,8.27
2022-10-17T23:53:32.424Z,7.10
2022-10-17T23:56:00.322Z,7.27
2022-10-17T23:58:27.584Z,8.37
